Главная страница
METAR-TAF:

METAR-TAF

Аэропорты :

Vilhelmina, Швеция

широта: 64-34-44N, долгота: 016-50-00E, высота над уровнем моря: 347 м

Текущие метеонаблюдения

Эта сводка был подготовлена 1 час и 12 минут назад, в 13:50 UTC
Ветер 10 Узел от юго-юго-восточный, изменяющийся между юго-восточный и южный
Температура 4°C
Влажность 52%
Давление 1016 hPa
Видимость 10 км и более
мгла

METAR: ESNV 221350Z AUTO 16010KT 130V190 9999 HZ FEW086/// BKN100/// 04/M05 Q1016

Время: 16:02 (15:02 UTC)


TAF: отсутствует

Метеонаблюдения и прогнозы для более 4000 аэропортов (сводки METAR и TAF).

Имеющиеся станции представлены на карте желтыми и красными точками.

Чтобы увидеть название станции, наведите на нее мышь.

Затем щелкните, чтобы увидеть метеонаблюдения и метеопрогнозы.

Управление картой: чтобы увеличить масштаб, щелкните зеленые кнопки с черным крестиком; чтобы уменьшить масштаб, щелкните зеленую кнопку с тире; для просмотра соседних карт щелкайте зеленые стрелки.


METAR-TAF: